createdAt,value
2017-07-21T00:02:24.326Z,19.00
2017-07-21T00:04:51.240Z,19.00
2017-07-21T00:07:18.628Z,18.90
2017-07-21T00:09:45.502Z,19.00
2017-07-21T00:12:12.330Z,18.90
2017-07-21T00:14:39.294Z,18.90
2017-07-21T00:17:06.159Z,18.90
2017-07-21T00:19:33.048Z,18.90
2017-07-21T00:22:00.700Z,18.90
2017-07-21T00:24:27.546Z,18.80
2017-07-21T00:26:54.405Z,18.90
2017-07-21T00:29:21.204Z,18.80
2017-07-21T00:31:48.157Z,18.80
2017-07-21T00:34:14.986Z,18.90
2017-07-21T00:36:41.833Z,18.80
2017-07-21T00:39:08.742Z,18.80
2017-07-21T00:41:35.594Z,18.70
2017-07-21T00:44:02.460Z,18.60
2017-07-21T00:46:29.876Z,18.70
2017-07-21T00:48:56.929Z,18.70
2017-07-21T00:51:23.850Z,18.60
2017-07-21T00:53:50.772Z,18.60
2017-07-21T00:56:17.706Z,18.50
2017-07-21T00:58:44.624Z,18.50
2017-07-21T01:01:11.772Z,18.50
2017-07-21T01:03:38.725Z,18.50
2017-07-21T01:06:05.655Z,18.50
2017-07-21T01:08:32.809Z,18.60
2017-07-21T01:10:59.748Z,18.60
2017-07-21T01:13:26.634Z,18.50
2017-07-21T01:15:53.568Z,18.40
2017-07-21T01:18:21.504Z,18.40
2017-07-21T01:20:48.382Z,18.40
2017-07-21T01:23:15.239Z,18.40
2017-07-21T01:25:42.162Z,18.30
2017-07-21T01:28:09.068Z,18.30
2017-07-21T01:30:35.968Z,18.30
2017-07-21T01:33:04.231Z,18.30
2017-07-21T01:35:31.384Z,18.30
2017-07-21T01:37:58.282Z,18.20
2017-07-21T01:40:25.255Z,18.20
2017-07-21T01:42:52.261Z,18.20
2017-07-21T01:45:19.177Z,18.10
2017-07-21T01:47:46.505Z,18.10
2017-07-21T01:50:13.612Z,18.20
2017-07-21T01:52:40.502Z,18.10
2017-07-21T01:55:07.492Z,18.10
2017-07-21T01:57:35.077Z,18.10
2017-07-21T02:00:01.972Z,18.10
2017-07-21T02:02:28.964Z,18.00
2017-07-21T02:04:55.781Z,18.00
2017-07-21T02:07:22.619Z,18.00
2017-07-21T02:09:49.476Z,18.00
2017-07-21T02:12:16.334Z,17.90
2017-07-21T02:14:43.168Z,17.90
2017-07-21T02:17:10.012Z,17.90
2017-07-21T02:19:36.865Z,17.90
2017-07-21T02:22:03.797Z,17.90
2017-07-21T02:24:30.675Z,17.80
2017-07-21T02:26:57.581Z,17.80
2017-07-21T02:29:24.413Z,17.80
2017-07-21T02:31:51.288Z,17.80
2017-07-21T02:34:18.136Z,17.80
2017-07-21T02:36:44.949Z,17.80
2017-07-21T02:39:11.870Z,17.80
2017-07-21T02:41:38.668Z,17.70
2017-07-21T02:44:05.444Z,17.70
2017-07-21T02:46:32.315Z,17.70
2017-07-21T02:48:59.142Z,17.60
2017-07-21T02:51:26.072Z,17.60
2017-07-21T02:53:52.887Z,17.60
2017-07-21T02:56:19.699Z,17.60
2017-07-21T02:58:46.596Z,17.60
2017-07-21T03:01:13.468Z,17.60
2017-07-21T03:03:40.327Z,17.60
2017-07-21T03:06:07.445Z,17.50
2017-07-21T03:08:34.333Z,17.50
2017-07-21T03:11:01.192Z,17.50
2017-07-21T03:13:28.016Z,17.40
2017-07-21T03:15:54.886Z,17.40
2017-07-21T03:18:21.929Z,17.40
2017-07-21T03:20:48.812Z,17.40
2017-07-21T03:23:23.044Z,17.40
2017-07-21T03:25:50.016Z,17.40
2017-07-21T03:28:16.937Z,17.40
2017-07-21T03:30:43.783Z,17.50
2017-07-21T03:33:10.666Z,17.40
2017-07-21T03:35:37.492Z,17.40
2017-07-21T03:38:04.335Z,17.30
2017-07-21T03:40:31.196Z,17.40
2017-07-21T03:42:58.012Z,17.40
2017-07-21T03:45:24.845Z,17.40
2017-07-21T03:47:51.740Z,17.40
2017-07-21T03:50:18.755Z,17.30
2017-07-21T03:52:45.624Z,17.40
2017-07-21T03:55:12.487Z,17.50
2017-07-21T03:57:39.366Z,17.40
2017-07-21T04:00:06.309Z,17.50
2017-07-21T04:02:33.113Z,17.50
2017-07-21T04:04:59.928Z,17.40
2017-07-21T04:07:26.832Z,17.50
2017-07-21T04:09:53.683Z,17.50
2017-07-21T04:12:20.554Z,17.50
2017-07-21T04:14:47.397Z,17.50
2017-07-21T04:17:14.385Z,17.50
2017-07-21T04:19:41.716Z,17.60
2017-07-21T04:22:08.792Z,17.50
2017-07-21T04:24:36.338Z,17.50
2017-07-21T04:27:05.594Z,17.40
2017-07-21T04:35:02.009Z,17.50
2017-07-21T04:37:28.898Z,17.50
2017-07-21T04:39:55.810Z,17.50
2017-07-21T04:42:26.904Z,17.40
2017-07-21T04:44:59.182Z,17.40
2017-07-21T04:47:28.929Z,17.40
2017-07-21T04:49:56.722Z,17.40
2017-07-21T04:52:23.826Z,17.50
2017-07-21T04:54:50.704Z,17.50
2017-07-21T04:57:17.996Z,17.60
2017-07-21T04:59:44.931Z,17.60
2017-07-21T05:02:11.946Z,17.70
2017-07-21T05:04:39.110Z,17.70
2017-07-21T05:07:05.971Z,17.70
2017-07-21T05:09:33.095Z,17.90
2017-07-21T05:11:59.986Z,17.90
2017-07-21T05:14:26.874Z,18.00
2017-07-21T05:16:53.993Z,18.10
2017-07-21T05:19:22.747Z,18.10
2017-07-21T05:21:49.622Z,18.10
2017-07-21T05:24:16.537Z,18.20
2017-07-21T05:26:43.457Z,18.30
2017-07-21T05:29:10.291Z,18.30
2017-07-21T05:31:37.532Z,18.40
2017-07-21T05:34:04.455Z,18.40
2017-07-21T05:36:31.351Z,18.50
2017-07-21T05:38:58.969Z,18.50
2017-07-21T05:41:25.853Z,18.50
2017-07-21T05:43:53.087Z,18.60
2017-07-21T05:46:20.137Z,18.60
2017-07-21T05:48:47.464Z,18.60
2017-07-21T05:51:14.338Z,18.60
2017-07-21T05:53:41.773Z,18.60
2017-07-21T05:56:09.569Z,18.70
2017-07-21T05:58:36.500Z,18.70
2017-07-21T06:01:03.375Z,18.80
2017-07-21T06:03:30.677Z,18.70
2017-07-21T06:05:57.528Z,18.80
2017-07-21T06:08:24.337Z,18.90
2017-07-21T06:10:51.215Z,18.90
2017-07-21T06:13:18.255Z,18.90
2017-07-21T06:15:45.953Z,18.90
2017-07-21T06:18:13.119Z,19.00
2017-07-21T06:20:40.012Z,19.10
2017-07-21T06:23:07.467Z,19.20
2017-07-21T06:25:34.305Z,19.30
2017-07-21T06:28:01.372Z,19.30
2017-07-21T06:30:28.285Z,19.40
2017-07-21T06:41:37.390Z,19.80
2017-07-21T06:44:05.522Z,19.90
2017-07-21T06:46:33.711Z,20.00
2017-07-21T06:49:00.754Z,20.00
2017-07-21T06:51:29.701Z,20.10
2017-07-21T06:54:04.108Z,20.20
2017-07-21T07:02:05.419Z,20.30
2017-07-21T07:16:21.863Z,20.80
2017-07-21T07:27:20.268Z,21.00
2017-07-21T07:29:47.204Z,21.20
2017-07-21T07:32:16.945Z,21.40
2017-07-21T07:34:43.790Z,21.50
2017-07-21T07:37:10.709Z,21.70
2017-07-21T07:39:39.194Z,21.80
2017-07-21T07:42:06.096Z,21.90
2017-07-21T07:44:32.997Z,22.00
2017-07-21T07:46:59.835Z,22.00
2017-07-21T07:49:26.638Z,22.10
2017-07-21T07:51:53.514Z,22.10
2017-07-21T07:54:20.966Z,22.10
2017-07-21T07:56:47.798Z,22.30
2017-07-21T07:59:14.646Z,22.40
2017-07-21T08:01:42.368Z,22.50
2017-07-21T08:04:09.224Z,22.50
2017-07-21T08:06:36.097Z,22.50
2017-07-21T08:09:03.097Z,22.50
2017-07-21T08:11:29.980Z,22.50
2017-07-21T08:13:56.935Z,22.60
2017-07-21T08:16:23.874Z,22.70
2017-07-21T08:18:51.144Z,22.80
2017-07-21T08:21:18.136Z,22.90
2017-07-21T08:23:45.010Z,22.90
2017-07-21T08:26:11.912Z,22.90
2017-07-21T08:28:38.966Z,22.90
2017-07-21T08:31:05.736Z,22.90
2017-07-21T08:33:32.528Z,22.90
2017-07-21T08:35:59.356Z,23.00
2017-07-21T08:38:26.194Z,23.20
2017-07-21T08:40:53.116Z,23.20
2017-07-21T08:43:19.996Z,23.30
2017-07-21T08:45:46.824Z,23.40
2017-07-21T08:48:13.664Z,23.50
2017-07-21T08:50:41.152Z,23.60
2017-07-21T08:53:07.978Z,23.60
2017-07-21T08:55:35.052Z,23.60
2017-07-21T08:58:03.003Z,23.70
2017-07-21T09:00:31.145Z,23.90
2017-07-21T09:02:58.021Z,24.00
2017-07-21T09:05:24.986Z,24.00
2017-07-21T09:07:52.366Z,24.00
2017-07-21T09:10:20.050Z,24.20
2017-07-21T09:12:46.984Z,24.20
2017-07-21T09:15:14.000Z,24.30
2017-07-21T09:17:40.998Z,24.40
2017-07-21T09:20:07.837Z,24.30
2017-07-21T09:22:34.770Z,24.50
2017-07-21T09:25:01.720Z,24.70
2017-07-21T09:27:28.556Z,24.80
2017-07-21T09:29:55.411Z,24.90
2017-07-21T09:32:22.224Z,25.00
2017-07-21T09:34:49.045Z,25.10
2017-07-21T09:37:15.881Z,25.10
2017-07-21T09:39:42.639Z,25.10
2017-07-21T09:42:09.416Z,25.20
2017-07-21T09:44:38.724Z,25.20
2017-07-21T09:47:05.663Z,25.10
2017-07-21T09:49:32.496Z,25.30
2017-07-21T09:51:59.346Z,25.40
2017-07-21T09:54:26.137Z,25.50
2017-07-21T09:56:53.012Z,25.50
2017-07-21T09:59:19.908Z,25.60
2017-07-21T10:01:46.763Z,25.70
2017-07-21T10:04:13.581Z,25.70
2017-07-21T10:06:40.875Z,25.90
2017-07-21T10:09:08.473Z,26.00
2017-07-21T10:11:36.087Z,26.00
2017-07-21T10:14:06.815Z,26.00
2017-07-21T10:16:34.188Z,26.00
2017-07-21T10:19:02.787Z,26.00
2017-07-21T10:21:29.623Z,26.20
2017-07-21T10:24:04.950Z,26.20
2017-07-21T10:41:30.369Z,27.00
2017-07-21T10:47:17.501Z,27.30
2017-07-21T11:28:47.969Z,28.20
2017-07-21T11:51:52.634Z,28.10
2017-07-21T12:08:44.599Z,28.00
2017-07-21T12:37:07.356Z,28.20
2017-07-21T12:39:36.608Z,28.30
2017-07-21T12:42:03.464Z,28.30
2017-07-21T12:44:30.384Z,28.30
2017-07-21T12:46:57.704Z,28.30
2017-07-21T13:04:03.686Z,29.00
2017-07-21T14:10:09.488Z,31.30
2017-07-21T14:12:38.825Z,31.30
2017-07-21T14:15:05.725Z,31.70
2017-07-21T14:17:32.652Z,31.80
2017-07-21T14:19:59.859Z,32.00
2017-07-21T14:22:26.725Z,32.00
2017-07-21T14:24:54.587Z,32.00
2017-07-21T14:27:21.627Z,31.90
2017-07-21T14:29:49.313Z,31.70
2017-07-21T14:32:16.310Z,31.80
2017-07-21T14:34:43.285Z,31.90
2017-07-21T14:37:10.277Z,32.10
2017-07-21T14:39:37.250Z,32.20
2017-07-21T14:42:04.253Z,32.30
2017-07-21T14:44:31.139Z,32.50
2017-07-21T14:46:58.893Z,32.40
2017-07-21T14:49:25.981Z,32.20
2017-07-21T14:51:52.975Z,32.00
2017-07-21T14:54:19.982Z,31.70
2017-07-21T14:56:47.098Z,31.30
2017-07-21T14:59:14.388Z,31.20
2017-07-21T15:01:41.537Z,31.00
2017-07-21T15:04:08.838Z,30.70
2017-07-21T15:06:37.065Z,30.80
2017-07-21T15:11:40.000Z,30.40
2017-07-21T15:14:13.641Z,30.40
2017-07-21T15:19:58.364Z,30.30
2017-07-21T15:22:27.162Z,30.30
2017-07-21T15:25:10.795Z,30.40
2017-07-21T15:27:40.512Z,30.40
2017-07-21T15:30:12.738Z,30.50
2017-07-21T15:35:28.750Z,30.40
2017-07-21T15:37:56.228Z,30.40
2017-07-21T15:43:19.937Z,30.30
2017-07-21T15:51:24.859Z,30.20
2017-07-21T16:05:37.016Z,29.80
2017-07-21T16:08:04.092Z,29.60
2017-07-21T16:10:33.264Z,29.50
2017-07-21T16:13:00.552Z,29.40
2017-07-21T16:24:22.165Z,28.90
2017-07-21T16:30:04.665Z,28.70
2017-07-21T16:32:31.731Z,28.50
2017-07-21T16:34:58.850Z,28.50
2017-07-21T16:37:26.495Z,28.40
2017-07-21T16:39:53.913Z,28.30
2017-07-21T16:42:21.567Z,28.30
2017-07-21T16:44:49.041Z,28.20
2017-07-21T16:47:18.249Z,28.20
2017-07-21T16:49:45.761Z,28.10
2017-07-21T16:52:12.860Z,27.90
2017-07-21T16:54:40.136Z,28.00
2017-07-21T16:57:07.030Z,28.00
2017-07-21T17:02:34.408Z,27.80
2017-07-21T17:05:05.520Z,27.80
2017-07-21T17:10:56.702Z,27.50
2017-07-21T17:13:27.633Z,27.40
2017-07-21T17:15:56.892Z,27.20
2017-07-21T17:18:23.738Z,27.10
2017-07-21T17:20:51.339Z,27.00
2017-07-21T17:23:18.378Z,26.90
2017-07-21T17:28:23.138Z,26.70
2017-07-21T17:30:50.599Z,26.70
2017-07-21T17:33:17.559Z,26.60
2017-07-21T17:35:44.656Z,26.60
2017-07-21T17:38:12.168Z,26.60
2017-07-21T17:40:40.280Z,26.60
2017-07-21T17:43:07.764Z,26.60
2017-07-21T17:45:34.656Z,26.70
2017-07-21T17:48:02.796Z,26.70
2017-07-21T17:50:29.684Z,26.80
2017-07-21T17:52:56.828Z,26.70
2017-07-21T17:55:51.705Z,26.60
2017-07-21T17:58:19.142Z,26.60
2017-07-21T18:00:46.325Z,26.60
2017-07-21T18:03:13.108Z,26.50
2017-07-21T18:05:39.953Z,26.40
2017-07-21T18:08:09.617Z,26.40
2017-07-21T18:10:37.173Z,26.20
2017-07-21T18:13:20.276Z,26.20
2017-07-21T18:15:47.504Z,26.10
2017-07-21T18:18:14.450Z,25.90
2017-07-21T18:20:41.432Z,25.90
2017-07-21T18:23:09.438Z,25.90
2017-07-21T18:25:36.894Z,25.90
2017-07-21T18:28:04.221Z,25.70
2017-07-21T18:30:32.588Z,25.70
2017-07-21T18:33:02.134Z,25.60
2017-07-21T18:35:33.387Z,25.50
2017-07-21T18:38:10.354Z,25.40
2017-07-21T18:40:38.781Z,25.40
2017-07-21T18:43:14.090Z,25.20
2017-07-21T18:45:41.459Z,25.20
2017-07-21T18:48:08.846Z,25.20
2017-07-21T18:50:35.978Z,25.10
2017-07-21T18:53:02.751Z,24.90
2017-07-21T18:55:29.498Z,24.80
2017-07-21T18:58:19.628Z,24.80
2017-07-21T19:00:54.292Z,24.80
2017-07-21T19:03:21.407Z,24.60
2017-07-21T19:05:48.396Z,24.50
2017-07-21T19:08:18.697Z,24.60
2017-07-21T19:10:45.522Z,24.50
2017-07-21T19:13:13.067Z,24.40
2017-07-21T19:15:39.918Z,24.50
2017-07-21T19:18:07.681Z,24.40
2017-07-21T19:20:36.694Z,24.40
2017-07-21T19:23:03.994Z,24.40
2017-07-21T19:25:31.057Z,24.30
2017-07-21T19:27:58.128Z,24.10
2017-07-21T19:30:25.066Z,24.20
2017-07-21T19:41:32.480Z,24.30
2017-07-21T19:43:59.568Z,24.20
2017-07-21T19:46:26.634Z,24.10
2017-07-21T19:48:58.016Z,24.10
2017-07-21T19:51:43.629Z,24.00
2017-07-21T19:54:10.625Z,23.90
2017-07-21T19:56:42.025Z,23.90
2017-07-21T19:59:08.994Z,23.70
2017-07-21T20:10:36.738Z,23.30
2017-07-21T20:13:08.951Z,23.10
2017-07-21T20:15:44.927Z,22.90
2017-07-21T20:59:21.092Z,21.50
2017-07-21T21:01:48.380Z,21.50
2017-07-21T21:04:15.394Z,21.40
2017-07-21T21:06:42.333Z,21.40
2017-07-21T21:09:09.173Z,21.30
2017-07-21T21:11:36.109Z,21.20
2017-07-21T21:14:02.920Z,21.10
2017-07-21T21:16:29.998Z,21.00
2017-07-21T21:18:56.858Z,20.90
2017-07-21T21:21:24.376Z,20.90
2017-07-21T21:23:51.204Z,20.90
2017-07-21T21:26:18.153Z,20.90
2017-07-21T21:28:44.951Z,20.90
2017-07-21T21:31:12.015Z,21.00
2017-07-21T21:33:38.867Z,20.90
2017-07-21T21:36:05.716Z,20.90
2017-07-21T21:38:32.824Z,20.90
2017-07-21T21:40:59.804Z,20.90
2017-07-21T21:43:26.801Z,20.90
2017-07-21T21:45:53.701Z,20.90
2017-07-21T21:48:20.531Z,20.90
2017-07-21T21:50:47.389Z,20.90
2017-07-21T21:53:14.277Z,20.70
2017-07-21T21:55:43.810Z,20.80
2017-07-21T21:58:11.225Z,20.70
2017-07-21T22:00:38.252Z,20.80
2017-07-21T22:03:05.571Z,20.80
2017-07-21T22:05:33.093Z,20.80
2017-07-21T22:08:00.264Z,20.80
2017-07-21T22:10:27.218Z,20.60
2017-07-21T22:12:54.205Z,20.50
2017-07-21T22:15:33.514Z,20.40
2017-07-21T22:18:00.804Z,20.30
2017-07-21T22:20:27.733Z,20.20
2017-07-21T22:22:55.635Z,20.20
2017-07-21T22:25:22.980Z,20.20
2017-07-21T22:27:50.183Z,20.20
2017-07-21T22:30:18.126Z,20.10
2017-07-21T22:32:46.256Z,20.10
